createdAt,value
2023-03-08T00:01:25.123Z,99822.66
2023-03-08T00:03:58.316Z,99834.88
2023-03-08T00:06:28.595Z,99840.28
2023-03-08T00:09:00.931Z,99846.94
2023-03-08T00:11:30.388Z,99845.22
2023-03-08T00:14:00.345Z,99849.38
2023-03-08T00:16:28.854Z,99859.91
2023-03-08T00:18:57.163Z,99862.53
2023-03-08T00:21:25.564Z,99862.34
2023-03-08T00:23:55.510Z,99877.22
2023-03-08T00:26:24.036Z,99878.59
2023-03-08T00:28:53.989Z,99879.19
2023-03-08T00:31:22.464Z,99874.22
2023-03-08T00:33:55.752Z,99890.59
2023-03-08T00:36:24.459Z,99899.88
2023-03-08T00:38:53.498Z,99884.06
2023-03-08T00:41:21.918Z,99890.22
2023-03-08T00:43:50.880Z,99889.09
2023-03-08T00:46:19.520Z,99894.03
2023-03-08T00:48:48.072Z,99890.63
2023-03-08T00:51:18.064Z,99894.78
2023-03-08T00:53:46.695Z,99901.72
2023-03-08T00:56:15.461Z,99909.44
2023-03-08T00:58:44.160Z,99908.81
2023-03-08T01:01:17.728Z,99907.38
2023-03-08T01:03:46.113Z,99909.84
2023-03-08T01:06:16.944Z,99919.09
2023-03-08T01:08:45.766Z,99920.75
2023-03-08T01:11:24.128Z,99923.66
2023-03-08T01:13:54.283Z,99931.69
2023-03-08T01:16:28.902Z,99937.38
2023-03-08T01:18:58.438Z,99937.00
2023-03-08T01:21:28.725Z,99932.31
2023-03-08T01:23:57.403Z,99937.53
2023-03-08T01:26:28.062Z,99941.50
2023-03-08T01:28:57.015Z,99951.06
2023-03-08T01:31:27.668Z,99944.34
2023-03-08T01:33:57.215Z,99951.59
2023-03-08T01:36:27.718Z,99949.97
2023-03-08T01:38:56.106Z,99953.16
2023-03-08T01:41:30.536Z,99953.53
2023-03-08T01:43:59.547Z,99959.53
2023-03-08T01:46:35.610Z,99957.41
2023-03-08T01:49:17.770Z,99958.56
2023-03-08T01:51:58.073Z,99960.50
2023-03-08T01:54:50.624Z,99965.25
2023-03-08T01:57:24.328Z,99959.25
2023-03-08T01:59:57.574Z,99967.06
2023-03-08T02:02:32.779Z,99969.25
2023-03-08T02:05:01.240Z,99970.38
2023-03-08T02:07:29.617Z,99964.69
2023-03-08T02:09:57.944Z,99964.56
2023-03-08T02:12:27.763Z,99966.97
2023-03-08T02:14:58.743Z,99970.44
2023-03-08T02:17:27.628Z,99966.75
2023-03-08T02:20:30.503Z,99971.72
2023-03-08T02:23:13.610Z,99961.16
2023-03-08T02:25:43.495Z,99961.00
2023-03-08T02:28:11.928Z,99962.13
2023-03-08T02:30:42.464Z,99970.38
2023-03-08T02:33:10.908Z,99970.72
2023-03-08T02:35:43.725Z,99969.06
2023-03-08T02:38:13.491Z,99972.50
2023-03-08T02:40:42.484Z,99975.13
2023-03-08T02:43:11.089Z,99973.41
2023-03-08T02:45:39.365Z,99965.63
2023-03-08T02:48:08.337Z,99965.44
2023-03-08T02:50:39.998Z,99968.56
2023-03-08T02:53:08.833Z,99964.03
2023-03-08T02:55:37.841Z,99957.53
2023-03-08T02:58:07.427Z,99962.19
2023-03-08T03:00:35.884Z,99959.66
2023-03-08T03:03:04.201Z,99962.03
2023-03-08T03:05:32.771Z,99963.09
2023-03-08T03:08:02.254Z,99960.09
2023-03-08T03:10:30.648Z,99963.22
2023-03-08T03:12:58.960Z,99959.19
2023-03-08T03:15:27.503Z,99956.91
2023-03-08T03:17:55.889Z,99952.38
2023-03-08T03:20:24.290Z,99954.25
2023-03-08T03:22:52.673Z,99945.31
2023-03-08T03:25:21.009Z,99949.19
2023-03-08T03:27:49.443Z,99943.09
2023-03-08T03:30:19.533Z,99932.91
2023-03-08T03:32:48.025Z,99928.06
2023-03-08T03:35:16.423Z,99933.44
2023-03-08T03:37:44.769Z,99926.59
2023-03-08T03:40:15.089Z,99930.94
2023-03-08T03:42:43.413Z,99911.28
2023-03-08T03:45:12.388Z,99916.41
2023-03-08T03:47:40.760Z,99918.72
2023-03-08T03:50:09.648Z,99912.59
2023-03-08T03:52:37.952Z,99907.22
2023-03-08T03:55:07.135Z,99903.63
2023-03-08T03:57:35.467Z,99892.41
2023-03-08T04:00:04.476Z,99895.19
2023-03-08T04:02:33.454Z,99890.59
2023-03-08T04:05:01.853Z,99887.25
2023-03-08T04:07:30.216Z,99888.28
2023-03-08T04:09:58.650Z,99874.22
2023-03-08T04:12:26.946Z,99875.19
2023-03-08T04:14:55.743Z,99871.84
2023-03-08T04:17:24.073Z,99864.16
2023-03-08T04:19:52.358Z,99855.69
2023-03-08T04:22:20.690Z,99853.88
2023-03-08T04:24:49.015Z,99852.59
2023-03-08T04:27:17.353Z,99850.53
2023-03-08T04:29:45.655Z,99844.34
2023-03-08T04:32:14.057Z,99833.81
2023-03-08T04:34:43.895Z,99824.78
2023-03-08T04:37:13.386Z,99813.53
2023-03-08T04:39:41.759Z,99812.94
2023-03-08T04:42:10.061Z,99816.50
2023-03-08T04:44:38.443Z,99808.00
2023-03-08T04:47:06.790Z,99805.88
2023-03-08T04:49:35.180Z,99803.84
2023-03-08T04:52:03.536Z,99796.88
2023-03-08T04:54:31.904Z,99786.00
2023-03-08T04:57:00.216Z,99783.41
2023-03-08T04:59:28.690Z,99779.22
2023-03-08T05:01:56.987Z,99786.34
2023-03-08T05:04:25.378Z,99771.94
2023-03-08T05:06:53.678Z,99770.34
2023-03-08T05:09:21.963Z,99768.50
2023-03-08T05:11:50.252Z,99755.88
2023-03-08T05:14:18.668Z,99753.22
2023-03-08T05:16:47.024Z,99758.25
2023-03-08T05:19:15.490Z,99746.41
2023-03-08T05:21:43.807Z,99742.44
2023-03-08T05:24:12.110Z,99731.28
2023-03-08T05:26:40.491Z,99725.81
2023-03-08T05:29:08.848Z,99729.56
2023-03-08T05:31:40.935Z,99722.28
2023-03-08T05:34:12.300Z,99719.63
2023-03-08T05:36:40.632Z,99721.63
2023-03-08T05:39:09.080Z,99715.69
2023-03-08T05:41:37.374Z,99708.97
2023-03-08T05:44:05.783Z,99710.72
2023-03-08T05:46:34.178Z,99704.97
2023-03-08T05:49:02.462Z,99694.34
2023-03-08T05:51:30.774Z,99694.47
2023-03-08T05:53:59.164Z,99686.69
2023-03-08T05:56:27.557Z,99680.94
2023-03-08T05:58:56.128Z,99685.50
2023-03-08T06:01:26.856Z,99676.94
2023-03-08T06:03:58.317Z,99676.06
2023-03-08T06:06:28.439Z,99666.00
2023-03-08T06:08:59.617Z,99664.59
2023-03-08T06:11:27.973Z,99661.88
2023-03-08T06:13:56.512Z,99661.75
2023-03-08T06:16:24.976Z,99657.84
2023-03-08T06:18:53.264Z,99644.16
2023-03-08T06:21:23.221Z,99641.78
2023-03-08T06:23:51.670Z,99638.81
2023-03-08T06:26:20.421Z,99632.84
2023-03-08T06:28:48.718Z,99629.47
2023-03-08T06:31:19.412Z,99628.06
2023-03-08T06:33:47.760Z,99626.22
2023-03-08T06:36:19.407Z,99620.00
2023-03-08T06:38:49.012Z,99614.25
2023-03-08T06:41:19.312Z,99609.22
2023-03-08T06:43:47.638Z,99606.81
2023-03-08T06:46:21.276Z,99599.50
2023-03-08T06:48:50.999Z,99594.47
2023-03-08T06:51:20.324Z,99585.69
2023-03-08T06:53:49.120Z,99583.81
2023-03-08T06:56:19.314Z,99575.00
2023-03-08T06:58:47.729Z,99570.50
2023-03-08T07:01:16.110Z,99557.31
2023-03-08T07:03:46.299Z,99549.25
2023-03-08T07:06:14.718Z,99541.75
2023-03-08T07:08:43.445Z,99545.53
2023-03-08T07:11:12.323Z,99538.78
2023-03-08T07:13:40.674Z,99538.44
2023-03-08T07:16:11.564Z,99530.16
2023-03-08T07:18:40.698Z,99520.56
2023-03-08T07:21:11.173Z,99520.75
2023-03-08T07:23:39.576Z,99510.41
2023-03-08T07:26:09.078Z,99504.94
2023-03-08T07:28:37.659Z,99508.19
2023-03-08T07:31:06.531Z,99501.19
2023-03-08T07:33:35.129Z,99491.59
2023-03-08T07:36:03.748Z,99489.31
2023-03-08T07:38:32.276Z,99481.56
2023-03-08T07:41:00.553Z,99476.13
2023-03-08T07:43:28.975Z,99470.66
2023-03-08T07:45:59.955Z,99470.66
2023-03-08T07:48:28.411Z,99465.22
2023-03-08T07:50:57.090Z,99459.00
2023-03-08T07:53:25.402Z,99454.84
2023-03-08T07:55:53.698Z,99457.69
2023-03-08T07:58:23.042Z,99451.47
2023-03-08T08:00:51.378Z,99446.56
2023-03-08T08:03:19.754Z,99438.06
2023-03-08T08:05:48.235Z,99438.81
2023-03-08T08:08:16.640Z,99433.91
2023-03-08T08:10:45.457Z,99427.47
2023-03-08T08:13:13.915Z,99424.66
2023-03-08T08:15:42.236Z,99421.06
2023-03-08T08:18:10.515Z,99418.78
2023-03-08T08:20:38.927Z,99415.19
2023-03-08T08:23:08.552Z,99415.94
2023-03-08T08:25:36.902Z,99415.94
2023-03-08T08:28:05.211Z,99410.84
2023-03-08T08:30:33.643Z,99413.69
2023-03-08T08:33:04.329Z,99405.75
2023-03-08T08:35:42.848Z,99404.00
2023-03-08T08:38:11.897Z,99398.13
2023-03-08T08:40:40.170Z,99395.09
2023-03-08T08:43:08.500Z,99394.91
2023-03-08T08:45:37.066Z,99398.28
2023-03-08T08:48:06.797Z,99391.47
2023-03-08T08:50:35.104Z,99392.03
2023-03-08T08:53:03.447Z,99385.41
2023-03-08T08:55:31.979Z,99389.38
2023-03-08T08:58:00.341Z,99392.75
2023-03-08T09:00:28.878Z,99381.97
2023-03-08T09:02:57.447Z,99384.38
2023-03-08T09:05:25.773Z,99387.00
2023-03-08T09:08:01.958Z,99393.03
2023-03-08T09:10:32.107Z,99388.47
2023-03-08T09:13:01.155Z,99390.31
2023-03-08T09:15:29.511Z,99388.59
2023-03-08T09:17:57.934Z,99393.50
2023-03-08T09:20:26.292Z,99393.31
2023-03-08T09:22:54.690Z,99391.78
2023-03-08T09:25:25.050Z,99394.22
2023-03-08T09:27:53.757Z,99401.00
2023-03-08T09:30:22.255Z,99392.06
2023-03-08T09:32:50.598Z,99393.16
2023-03-08T09:35:19.056Z,99402.78
2023-03-08T09:37:47.360Z,99396.69
2023-03-08T09:40:25.022Z,99392.72
2023-03-08T09:42:54.905Z,99400.03
2023-03-08T09:45:30.194Z,99397.53
2023-03-08T09:48:20.259Z,99396.34
2023-03-08T09:50:55.084Z,99390.84
2023-03-08T09:53:39.752Z,99402.25
2023-03-08T09:56:17.124Z,99400.88
2023-03-08T09:58:48.785Z,99401.00
2023-03-08T10:01:50.651Z,99403.94
2023-03-08T10:04:31.403Z,99401.81
2023-03-08T10:07:28.773Z,99400.41
2023-03-08T10:10:08.392Z,99400.56
2023-03-08T10:13:24.534Z,99399.91
2023-03-08T10:15:56.814Z,99406.22
2023-03-08T10:18:54.596Z,99404.81
2023-03-08T10:21:25.621Z,99404.72
2023-03-08T10:24:18.575Z,99404.03
2023-03-08T10:26:47.301Z,99407.53
2023-03-08T10:29:16.386Z,99412.53
2023-03-08T10:31:48.080Z,99406.81
2023-03-08T10:34:20.598Z,99411.03
2023-03-08T10:37:01.589Z,99416.56
2023-03-08T10:39:30.117Z,99412.31
2023-03-08T10:42:07.572Z,99417.84
2023-03-08T10:44:54.370Z,99418.47
2023-03-08T10:47:31.589Z,99425.31
2023-03-08T10:50:21.711Z,99418.78
2023-03-08T10:52:51.967Z,99425.84
2023-03-08T10:55:23.414Z,99430.03
2023-03-08T10:57:56.271Z,99429.91
2023-03-08T11:00:43.845Z,99426.16
2023-03-08T11:03:14.012Z,99431.66
2023-03-08T11:06:12.707Z,99433.81
2023-03-08T11:09:00.925Z,99434.97
2023-03-08T11:11:30.001Z,99429.75
2023-03-08T11:13:58.428Z,99431.09
2023-03-08T11:16:38.820Z,99435.84
2023-03-08T11:19:37.943Z,99438.28
2023-03-08T11:22:09.175Z,99438.63
2023-03-08T11:25:02.008Z,99432.84
2023-03-08T11:27:57.882Z,99443.72
2023-03-08T11:30:44.785Z,99438.97
2023-03-08T11:33:32.755Z,99436.75
2023-03-08T11:36:07.855Z,99441.47
2023-03-08T11:38:37.787Z,99438.47
2023-03-08T11:41:15.573Z,99446.19
2023-03-08T11:44:08.240Z,99444.72
2023-03-08T11:47:30.947Z,99454.53
2023-03-08T11:50:12.203Z,99455.34
2023-03-08T11:53:02.308Z,99449.75
2023-03-08T11:55:30.600Z,99454.16
2023-03-08T11:58:21.288Z,99459.84
2023-03-08T12:00:54.213Z,99451.47
2023-03-08T12:03:38.097Z,99462.75
2023-03-08T12:06:28.027Z,99472.50
2023-03-08T12:09:06.621Z,99471.81
2023-03-08T12:11:43.988Z,99472.34
2023-03-08T12:14:21.024Z,99474.44
2023-03-08T12:16:58.690Z,99481.63
2023-03-08T12:19:56.375Z,99486.53
2023-03-08T12:22:48.459Z,99486.56
2023-03-08T12:25:28.364Z,99495.81
2023-03-08T12:28:29.982Z,99498.66
2023-03-08T12:31:29.177Z,99503.28
2023-03-08T12:33:59.973Z,99503.84
2023-03-08T12:36:43.920Z,99506.69
2023-03-08T12:39:37.009Z,99513.63
2023-03-08T12:42:17.196Z,99518.44
2023-03-08T12:44:45.768Z,99524.09
2023-03-08T12:47:16.648Z,99519.50
2023-03-08T12:49:48.645Z,99519.78
2023-03-08T12:52:20.147Z,99518.78
2023-03-08T12:55:06.828Z,99520.56
2023-03-08T12:57:43.943Z,99518.78
2023-03-08T13:00:21.631Z,99532.59
2023-03-08T13:03:05.969Z,99535.91
2023-03-08T13:05:39.768Z,99545.34
2023-03-08T13:08:08.268Z,99543.81
2023-03-08T13:10:42.255Z,99549.19
2023-03-08T13:13:27.044Z,99552.25
2023-03-08T13:16:21.492Z,99563.75
2023-03-08T13:18:55.015Z,99568.34
2023-03-08T13:21:36.520Z,99573.72
2023-03-08T13:24:15.839Z,99578.31
2023-03-08T13:27:15.074Z,99573.97
2023-03-08T13:29:45.695Z,99579.34
2023-03-08T13:32:18.959Z,99583.19
2023-03-08T13:34:59.629Z,99589.31
2023-03-08T13:37:31.262Z,99594.66
2023-03-08T13:40:01.548Z,99589.81
2023-03-08T13:42:30.651Z,99595.66
2023-03-08T13:45:18.638Z,99590.81
2023-03-08T13:47:48.428Z,99597.97
2023-03-08T13:50:30.609Z,99604.34
2023-03-08T13:53:01.681Z,99603.03
2023-03-08T13:55:36.817Z,99601.78
2023-03-08T13:58:05.552Z,99607.63
2023-03-08T14:00:36.492Z,99606.09
2023-03-08T14:03:09.602Z,99612.72
2023-03-08T14:05:44.985Z,99611.72
2023-03-08T14:08:25.883Z,99609.94
2023-03-08T14:11:09.170Z,99615.53
2023-03-08T14:13:40.593Z,99616.56
2023-03-08T14:16:10.578Z,99624.22
2023-03-08T14:18:46.225Z,99622.69
2023-03-08T14:21:27.350Z,99624.47
2023-03-08T14:24:01.750Z,99634.16
2023-03-08T14:26:39.230Z,99629.03
2023-03-08T14:29:28.681Z,99634.88
2023-03-08T14:32:14.041Z,99637.94
2023-03-08T14:34:47.753Z,99638.19
2023-03-08T14:37:24.835Z,99641.22
2023-03-08T14:40:26.582Z,99640.72
2023-03-08T14:43:17.930Z,99645.00
2023-03-08T14:46:02.383Z,99643.69
2023-03-08T14:48:30.977Z,99649.56
2023-03-08T14:51:04.629Z,99650.56
2023-03-08T14:53:39.678Z,99645.97
2023-03-08T14:56:12.913Z,99650.28
2023-03-08T14:58:47.821Z,99654.09
2023-03-08T15:01:32.739Z,99646.69
2023-03-08T15:04:02.175Z,99648.47
2023-03-08T15:06:33.844Z,99644.34
2023-03-08T15:09:03.674Z,99647.66
2023-03-08T15:11:33.470Z,99647.13
2023-03-08T15:14:02.498Z,99644.06
2023-03-08T15:16:30.877Z,99647.88
2023-03-08T15:18:59.250Z,99644.06
2023-03-08T15:21:29.584Z,99639.47
2023-03-08T15:23:59.092Z,99646.56
2023-03-08T15:26:30.116Z,99634.84
2023-03-08T15:28:58.862Z,99635.31
2023-03-08T15:31:27.295Z,99637.59
2023-03-08T15:33:56.280Z,99641.66
2023-03-08T15:36:24.632Z,99646.22
2023-03-08T15:38:53.047Z,99638.78
2023-03-08T15:41:21.379Z,99641.34
2023-03-08T15:43:49.734Z,99635.47
2023-03-08T15:46:18.099Z,99630.09
2023-03-08T15:48:46.530Z,99631.88
2023-03-08T15:51:20.054Z,99627.53
2023-03-08T15:53:49.510Z,99638.47
2023-03-08T15:56:18.312Z,99624.97
2023-03-08T15:58:46.788Z,99631.06
2023-03-08T16:01:15.206Z,99621.63
2023-03-08T16:03:43.470Z,99616.25
2023-03-08T16:06:14.294Z,99627.97
2023-03-08T16:08:43.261Z,99614.97
2023-03-08T16:11:13.866Z,99619.78
2023-03-08T16:13:42.782Z,99613.16
2023-03-08T16:16:11.212Z,99613.16
2023-03-08T16:18:41.349Z,99616.47
2023-03-08T16:21:10.551Z,99616.47
2023-03-08T16:23:42.454Z,99614.94
2023-03-08T16:26:17.621Z,99605.75
2023-03-08T16:28:48.149Z,99600.94
2023-03-08T16:31:21.017Z,99605.75
2023-03-08T16:33:49.938Z,99605.75
2023-03-08T16:36:18.235Z,99602.19
2023-03-08T16:38:46.564Z,99605.00
2023-03-08T16:41:14.880Z,99606.53
2023-03-08T16:43:47.243Z,99607.28
2023-03-08T16:46:18.938Z,99600.16
2023-03-08T16:48:50.165Z,99606.53
2023-03-08T16:51:20.743Z,99607.78
2023-03-08T16:53:50.152Z,99601.44
2023-03-08T16:56:23.450Z,99602.69
2023-03-08T16:58:52.158Z,99597.09
2023-03-08T17:01:21.603Z,99592.00
2023-03-08T17:03:50.366Z,99592.50
2023-03-08T17:06:23.202Z,99590.97
2023-03-08T17:08:51.864Z,99592.75
2023-03-08T17:11:26.254Z,99588.41
2023-03-08T17:13:57.585Z,99586.09
2023-03-08T17:16:29.569Z,99586.59
2023-03-08T17:19:00.390Z,99583.25
2023-03-08T17:21:30.295Z,99577.38
2023-03-08T17:24:00.001Z,99572.28
2023-03-08T17:26:28.458Z,99582.94
2023-03-08T17:28:56.737Z,99572.25
2023-03-08T17:31:25.792Z,99576.06
2023-03-08T17:33:54.844Z,99576.28
2023-03-08T17:36:23.340Z,99566.34
2023-03-08T17:38:56.656Z,99566.84
2023-03-08T17:41:24.980Z,99563.03
2023-03-08T17:43:53.411Z,99565.06
2023-03-08T17:46:28.296Z,99557.09
2023-03-08T17:48:57.564Z,99556.56
2023-03-08T17:51:28.480Z,99557.06
2023-03-08T17:53:58.948Z,99559.09
2023-03-08T17:56:33.181Z,99551.22
2023-03-08T17:59:02.824Z,99549.91
2023-03-08T18:01:32.518Z,99545.81
2023-03-08T18:04:02.109Z,99550.38
2023-03-08T18:06:36.189Z,99542.22
2023-03-08T18:09:11.232Z,99543.97
2023-03-08T18:11:39.597Z,99539.34
2023-03-08T18:14:10.246Z,99547.94
2023-03-08T18:16:39.629Z,99542.09
2023-03-08T18:19:08.714Z,99539.53
2023-03-08T18:21:39.999Z,99535.41
2023-03-08T18:24:13.350Z,99542.00
2023-03-08T18:26:41.653Z,99525.47
2023-03-08T18:29:09.971Z,99530.50
2023-03-08T18:31:39.373Z,99527.16
2023-03-08T18:34:08.655Z,99519.75
2023-03-08T18:36:38.012Z,99522.00
2023-03-08T18:39:08.752Z,99520.19
2023-03-08T18:41:37.034Z,99513.56
2023-03-08T18:44:06.109Z,99513.31
2023-03-08T18:46:35.205Z,99513.00
2023-03-08T18:49:07.716Z,99512.72
2023-03-08T18:51:38.333Z,99507.63
2023-03-08T18:54:06.990Z,99502.53
2023-03-08T18:56:35.277Z,99501.47
2023-03-08T18:59:06.074Z,99492.06
2023-03-08T19:01:34.879Z,99494.56
2023-03-08T19:04:08.904Z,99495.06
2023-03-08T19:06:38.135Z,99492.28
2023-03-08T19:09:11.934Z,99488.72
2023-03-08T19:11:40.561Z,99481.31
2023-03-08T19:14:09.185Z,99488.16
2023-03-08T19:16:37.872Z,99485.88
2023-03-08T19:19:12.127Z,99485.09
2023-03-08T19:21:46.095Z,99471.63
2023-03-08T19:24:16.384Z,99479.25
2023-03-08T19:26:48.127Z,99475.41
2023-03-08T19:29:19.693Z,99481.00
2023-03-08T19:32:08.222Z,99487.84
2023-03-08T19:34:39.137Z,99492.66
2023-03-08T19:37:08.441Z,99491.91
2023-03-08T19:39:39.265Z,99495.94
2023-03-08T19:42:09.840Z,99498.75
2023-03-08T19:44:38.190Z,99500.28
2023-03-08T19:47:06.917Z,99501.03
2023-03-08T19:49:38.749Z,99494.69
2023-03-08T19:52:08.059Z,99502.31
2023-03-08T19:54:36.510Z,99499.25
2023-03-08T19:57:05.246Z,99497.44
2023-03-08T19:59:33.549Z,99501.00
2023-03-08T20:02:01.861Z,99497.94
2023-03-08T20:04:30.276Z,99504.75
2023-03-08T20:07:01.998Z,99503.69
2023-03-08T20:09:30.616Z,99495.03
2023-03-08T20:11:59.229Z,99497.06
2023-03-08T20:14:28.721Z,99496.78
2023-03-08T20:16:58.035Z,99497.28
2023-03-08T20:19:26.775Z,99500.09
2023-03-08T20:21:55.091Z,99497.00
2023-03-08T20:24:25.065Z,99502.59
2023-03-08T20:26:54.208Z,99501.84
2023-03-08T20:29:22.809Z,99501.06
2023-03-08T20:31:51.172Z,99498.00
2023-03-08T20:34:19.516Z,99503.59
2023-03-08T20:36:48.381Z,99506.88
2023-03-08T20:39:17.106Z,99507.34
2023-03-08T20:41:45.579Z,99504.56
2023-03-08T20:44:13.983Z,99505.06
2023-03-08T20:46:42.360Z,99506.31
2023-03-08T20:49:13.292Z,99507.56
2023-03-08T20:51:41.666Z,99508.81
2023-03-08T20:54:10.890Z,99503.72
2023-03-08T20:56:39.178Z,99498.16
2023-03-08T20:59:07.518Z,99506.25
2023-03-08T21:01:35.923Z,99507.19
2023-03-08T21:04:04.184Z,99506.16
2023-03-08T21:06:33.288Z,99504.34
2023-03-08T21:09:01.988Z,99511.19
2023-03-08T21:11:30.721Z,99513.69
2023-03-08T21:13:59.112Z,99510.63
2023-03-08T21:16:28.845Z,99513.91
2023-03-08T21:19:00.162Z,99510.81
2023-03-08T21:21:36.395Z,99521.69
2023-03-08T21:24:11.547Z,99517.09
2023-03-08T21:26:39.876Z,99523.94
2023-03-08T21:29:12.094Z,99526.44
2023-03-08T21:31:45.852Z,99526.16
2023-03-08T21:34:14.458Z,99534.22
2023-03-08T21:36:43.778Z,99531.16
2023-03-08T21:39:13.149Z,99528.84
2023-03-08T21:41:44.705Z,99525.78
2023-03-08T21:44:21.300Z,99536.16
2023-03-08T21:46:50.629Z,99534.34
2023-03-08T21:49:22.778Z,99541.94
2023-03-08T21:51:52.798Z,99548.78
2023-03-08T21:54:23.326Z,99543.41
2023-03-08T21:56:52.406Z,99555.06
2023-03-08T21:59:21.030Z,99561.13
2023-03-08T22:01:51.137Z,99554.50
2023-03-08T22:04:19.519Z,99555.47
2023-03-08T22:06:47.880Z,99564.31
2023-03-08T22:09:16.245Z,99562.00
2023-03-08T22:11:44.646Z,99568.84
2023-03-08T22:14:13.056Z,99565.75
2023-03-08T22:16:41.439Z,99571.81
2023-03-08T22:19:12.492Z,99568.25
2023-03-08T22:21:40.832Z,99574.31
2023-03-08T22:24:09.278Z,99580.38
2023-03-08T22:26:37.611Z,99590.00
2023-03-08T22:29:06.167Z,99592.50
2023-03-08T22:31:34.601Z,99593.75
2023-03-08T22:34:02.922Z,99593.47
2023-03-08T22:36:31.548Z,99594.72
2023-03-08T22:38:59.864Z,99601.53
2023-03-08T22:41:29.541Z,99606.34
2023-03-08T22:43:57.880Z,99605.56
2023-03-08T22:46:28.863Z,99614.72
2023-03-08T22:49:03.565Z,99624.31
2023-03-08T22:51:32.174Z,99625.09
2023-03-08T22:54:04.860Z,99627.88
2023-03-08T22:56:34.335Z,99636.25
2023-03-08T22:59:03.645Z,99643.06
2023-03-08T23:01:33.942Z,99645.84
2023-03-08T23:04:03.656Z,99653.16
2023-03-08T23:06:32.850Z,99668.34
2023-03-08T23:09:05.291Z,99671.63
2023-03-08T23:11:34.655Z,99672.09
2023-03-08T23:14:04.041Z,99672.59
2023-03-08T23:16:32.393Z,99681.44
2023-03-08T23:19:01.135Z,99688.22
2023-03-08T23:21:31.347Z,99689.97
2023-03-08T23:24:00.057Z,99691.97
2023-03-08T23:26:29.612Z,99690.91
2023-03-08T23:28:59.665Z,99699.28
2023-03-08T23:31:30.988Z,99706.38
2023-03-08T23:34:01.573Z,99715.53
2023-03-08T23:36:31.984Z,99717.84
2023-03-08T23:39:03.614Z,99720.47
2023-03-08T23:41:33.386Z,99726.31
2023-03-08T23:44:03.046Z,99729.41
2023-03-08T23:46:32.128Z,99734.00
2023-03-08T23:49:01.732Z,99746.22
2023-03-08T23:51:32.877Z,99744.50
2023-03-08T23:54:02.889Z,99750.38
2023-03-08T23:56:40.181Z,99760.56
2023-03-08T23:59:18.147Z,99763.63
